createdAt,value
2022-08-29T00:04:16.210Z,25.4
2022-08-29T00:09:58.438Z,25.4
2022-08-29T00:15:46.328Z,25.4
2022-08-29T00:21:24.058Z,25.4
2022-08-29T00:26:50.369Z,25.4
2022-08-29T00:32:15.856Z,25.4
2022-08-29T00:37:57.010Z,25.4
2022-08-29T00:43:23.201Z,25.4
2022-08-29T00:48:45.021Z,25.4
2022-08-29T00:54:05.684Z,25.4
2022-08-29T00:59:10.518Z,25.4
2022-08-29T01:04:56.939Z,25.4
2022-08-29T01:10:46.759Z,25.4
2022-08-29T01:16:25.219Z,25.3
2022-08-29T01:21:46.764Z,25.4
2022-08-29T01:27:08.316Z,25.4
2022-08-29T01:33:20.615Z,25.4
2022-08-29T01:38:57.324Z,25.4
2022-08-29T01:44:37.925Z,25.4
2022-08-29T01:50:18.036Z,25.3
2022-08-29T01:55:54.189Z,25.3
2022-08-29T02:01:38.491Z,25.3
2022-08-29T02:06:59.767Z,25.3
2022-08-29T02:12:36.749Z,25.3
2022-08-29T02:17:57.548Z,25.3
2022-08-29T02:23:47.335Z,25.3
2022-08-29T02:29:39.958Z,25.3
2022-08-29T02:34:52.938Z,25.3
2022-08-29T02:40:24.703Z,25.3
2022-08-29T02:45:57.514Z,25.3
2022-08-29T02:51:50.110Z,25.3
2022-08-29T02:57:17.552Z,25.3
2022-08-29T03:02:39.474Z,25.3
2022-08-29T03:08:06.831Z,25.3
2022-08-29T03:13:28.461Z,25.3
2022-08-29T03:19:07.648Z,25.3
2022-08-29T03:24:43.946Z,25.3
2022-08-29T03:30:29.972Z,25.3
2022-08-29T03:35:40.012Z,25.3
2022-08-29T03:41:02.815Z,25.3
2022-08-29T03:46:42.092Z,25.2
2022-08-29T03:52:20.159Z,25.2
2022-08-29T03:57:58.298Z,25.2
2022-08-29T04:03:35.573Z,25.3
2022-08-29T04:09:16.655Z,25.3
2022-08-29T04:14:52.640Z,25.2
2022-08-29T04:20:41.788Z,25.3
2022-08-29T04:26:47.927Z,25.3
2022-08-29T04:32:30.627Z,25.2
2022-08-29T04:38:11.809Z,25.3
2022-08-29T04:43:49.253Z,25.2
2022-08-29T04:49:31.952Z,25.2
2022-08-29T04:55:11.504Z,25.2
2022-08-29T05:00:43.473Z,25.2
2022-08-29T05:06:10.950Z,25.2
2022-08-29T05:11:57.452Z,25.2
2022-08-29T05:17:35.081Z,25.2
2022-08-29T05:23:22.235Z,25.2
2022-08-29T05:28:59.875Z,25.2
2022-08-29T05:35:08.025Z,25.3
2022-08-29T05:40:32.283Z,25.2
2022-08-29T05:46:14.440Z,25.3
2022-08-29T05:51:58.471Z,25.3
2022-08-29T05:57:36.587Z,25.3
2022-08-29T06:03:16.519Z,25.3
2022-08-29T06:08:57.076Z,25.3
2022-08-29T06:14:37.852Z,25.3
2022-08-29T06:20:22.850Z,25.3
2022-08-29T06:26:27.464Z,25.3
2022-08-29T06:32:17.517Z,25.3
2022-08-29T06:37:55.137Z,25.3
2022-08-29T06:43:34.763Z,25.3
2022-08-29T06:49:18.444Z,25.3
2022-08-29T06:55:27.237Z,25.3
2022-08-29T07:01:27.988Z,25.3
2022-08-29T07:07:09.280Z,25.3
2022-08-29T07:13:12.895Z,25.3
2022-08-29T07:19:06.017Z,25.4
2022-08-29T07:24:48.012Z,25.4
2022-08-29T07:30:31.201Z,25.4
2022-08-29T07:36:35.805Z,25.4
2022-08-29T07:42:20.227Z,25.4
2022-08-29T07:48:09.150Z,25.4
2022-08-29T07:53:58.054Z,25.5
2022-08-29T07:59:40.291Z,25.4
2022-08-29T08:05:09.155Z,25.5
2022-08-29T08:11:06.595Z,25.5
2022-08-29T08:16:50.411Z,25.6
2022-08-29T08:22:38.779Z,25.6
2022-08-29T08:28:17.885Z,25.6
2022-08-29T08:34:00.599Z,25.6
2022-08-29T08:39:37.927Z,25.6
2022-08-29T08:45:24.443Z,25.6
2022-08-29T08:50:49.155Z,25.6
2022-08-29T08:56:28.032Z,25.6
2022-08-29T09:01:50.128Z,25.7
2022-08-29T09:07:29.922Z,25.7
2022-08-29T09:12:55.723Z,25.6
2022-08-29T09:18:47.900Z,25.7
2022-08-29T09:25:03.439Z,25.7
2022-08-29T09:30:45.907Z,25.7
2022-08-29T09:36:53.607Z,25.7
2022-08-29T09:42:36.345Z,25.7
2022-08-29T09:48:16.629Z,25.7
2022-08-29T09:54:04.130Z,25.6
2022-08-29T09:59:45.905Z,25.7
2022-08-29T10:05:35.918Z,25.7
2022-08-29T10:11:20.989Z,25.6
2022-08-29T10:17:12.787Z,25.7
2022-08-29T10:22:58.460Z,25.7
2022-08-29T10:28:35.488Z,25.7
2022-08-29T10:34:02.892Z,25.7
2022-08-29T10:39:31.348Z,25.7
2022-08-29T10:45:21.832Z,25.8
2022-08-29T10:51:18.744Z,25.7
2022-08-29T10:56:56.702Z,25.8
2022-08-29T11:02:39.659Z,25.8
2022-08-29T11:08:19.306Z,25.8
2022-08-29T11:13:58.229Z,25.8
2022-08-29T11:19:41.929Z,25.8
2022-08-29T11:25:23.942Z,25.8
2022-08-29T11:31:08.303Z,25.9
2022-08-29T11:36:44.940Z,25.9
2022-08-29T11:43:45.618Z,25.9
2022-08-29T11:49:37.990Z,25.9
2022-08-29T11:55:16.366Z,25.9
2022-08-29T12:01:00.602Z,25.9
2022-08-29T12:06:56.704Z,25.9
2022-08-29T12:13:07.882Z,25.8
2022-08-29T12:18:57.096Z,25.9
2022-08-29T12:24:41.489Z,25.9
2022-08-29T12:31:08.102Z,25.9
2022-08-29T12:37:25.519Z,25.9
2022-08-29T12:43:12.533Z,26
2022-08-29T12:48:23.078Z,26
2022-08-29T12:53:57.825Z,26
2022-08-29T12:59:24.032Z,26
2022-08-29T13:05:11.819Z,26
2022-08-29T13:10:57.490Z,26
2022-08-29T13:16:39.472Z,26
2022-08-29T13:22:48.122Z,26
2022-08-29T13:28:35.669Z,26.1
2022-08-29T13:34:08.826Z,26.1
2022-08-29T13:39:57.120Z,26.1
2022-08-29T13:45:35.533Z,26
2022-08-29T13:51:14.864Z,26
2022-08-29T13:56:56.922Z,26
2022-08-29T14:03:35.339Z,26
2022-08-29T14:09:37.144Z,26
2022-08-29T14:15:25.486Z,26
2022-08-29T14:21:11.021Z,26
2022-08-29T14:26:35.215Z,25.9
2022-08-29T14:32:36.107Z,25.9
2022-08-29T14:38:36.265Z,25.9
2022-08-29T14:44:20.623Z,26
2022-08-29T14:49:58.783Z,25.9
2022-08-29T14:55:51.406Z,25.9
2022-08-29T15:02:00.766Z,25.9
2022-08-29T15:07:30.305Z,25.9
2022-08-29T15:13:14.550Z,25.9
2022-08-29T15:26:08.910Z,25.8
2022-08-29T15:31:51.813Z,25.8
2022-08-29T15:37:31.528Z,25.8
2022-08-29T15:43:23.154Z,25.7
2022-08-29T15:49:09.913Z,25.8
2022-08-29T15:54:47.855Z,25.8
2022-08-29T16:01:05.511Z,25.8
2022-08-29T16:06:44.186Z,25.8
2022-08-29T16:12:41.933Z,25.8
